createdAt,value
2019-04-19T00:01:52.217Z,19.33
2019-04-19T00:04:16.877Z,17.50
2019-04-19T00:07:00.538Z,13.17
2019-04-19T00:09:35.896Z,13.83
2019-04-19T00:12:04.470Z,16.10
2019-04-19T00:14:21.139Z,18.37
2019-04-19T00:16:50.764Z,13.75
2019-04-19T00:19:35.605Z,15.78
2019-04-19T00:22:13.299Z,17.70
2019-04-19T00:24:18.652Z,14.20
2019-04-19T00:26:46.889Z,16.37
2019-04-19T00:29:21.990Z,21.27
2019-04-19T00:32:06.438Z,23.67
2019-04-19T00:34:16.635Z,24.85
2019-04-19T00:36:46.643Z,28.60
2019-04-19T00:39:45.083Z,36.68
2019-04-19T00:42:24.745Z,28.02
2019-04-19T00:44:56.732Z,51.48
2019-04-19T00:47:28.721Z,43.35
2019-04-19T00:49:56.960Z,36.07
2019-04-19T00:52:49.379Z,37.05
2019-04-19T00:55:12.623Z,45.83
2019-04-19T00:57:39.328Z,50.73
2019-04-19T01:00:03.886Z,59.30
2019-04-19T01:02:35.306Z,44.15
2019-04-19T01:05:04.689Z,41.92
2019-04-19T01:07:35.849Z,34.92
2019-04-19T01:10:14.843Z,32.73
2019-04-19T01:12:50.040Z,27.73
2019-04-19T01:15:10.721Z,24.50
2019-04-19T01:17:47.597Z,22.37
2019-04-19T01:20:06.354Z,23.05
2019-04-19T01:22:33.149Z,22.50
2019-04-19T01:25:02.518Z,19.07
2019-04-19T01:27:34.407Z,18.27
2019-04-19T01:30:01.457Z,20.02
2019-04-19T01:32:30.355Z,22.27
2019-04-19T01:35:08.168Z,17.75
2019-04-19T01:37:33.151Z,18.25
2019-04-19T01:40:17.071Z,18.12
2019-04-19T01:42:50.952Z,22.27
2019-04-19T01:45:29.142Z,16.50
2019-04-19T01:48:15.992Z,16.75
2019-04-19T01:51:12.372Z,17.15
2019-04-19T01:53:39.123Z,16.23
2019-04-19T01:56:03.835Z,17.48
2019-04-19T01:58:25.665Z,15.45
2019-04-19T02:00:58.275Z,17.02
2019-04-19T02:03:33.385Z,19.62
2019-04-19T02:06:16.379Z,18.67
2019-04-19T02:08:48.035Z,16.95
2019-04-19T02:12:03.603Z,15.40
2019-04-19T02:14:26.974Z,14.07
2019-04-19T02:16:55.836Z,15.18
2019-04-19T02:19:23.336Z,17.02
2019-04-19T02:21:51.096Z,14.60
2019-04-19T02:24:21.587Z,17.80
2019-04-19T02:26:54.279Z,20.12
2019-04-19T02:29:21.914Z,17.67
2019-04-19T02:34:43.013Z,16.62
2019-04-19T02:44:45.791Z,15.20
2019-04-19T02:49:42.964Z,13.35
2019-04-19T02:52:15.140Z,13.68
2019-04-19T03:00:52.198Z,14.85
2019-04-19T03:03:07.835Z,18.82
2019-04-19T03:05:32.077Z,15.25
2019-04-19T03:07:45.575Z,16.45
2019-04-19T03:10:19.338Z,13.83
2019-04-19T03:13:03.442Z,13.75
2019-04-19T03:15:36.396Z,15.93
2019-04-19T03:18:08.853Z,15.15
2019-04-19T03:20:28.564Z,17.82
2019-04-19T03:22:59.432Z,15.30
2019-04-19T03:25:30.468Z,12.50
2019-04-19T03:27:55.673Z,13.32
2019-04-19T03:30:37.818Z,14.75
2019-04-19T03:35:39.426Z,14.68
2019-04-19T03:38:15.705Z,15.13
2019-04-19T03:40:34.772Z,14.55
2019-04-19T03:43:26.483Z,14.50
2019-04-19T03:45:56.193Z,13.85
2019-04-19T03:48:25.264Z,16.02
2019-04-19T03:50:54.704Z,14.43
2019-04-19T03:53:31.006Z,15.18
2019-04-19T03:56:04.289Z,13.60
2019-04-19T03:58:11.165Z,14.15
2019-04-19T04:00:36.270Z,16.55
2019-04-19T04:03:19.587Z,15.48
2019-04-19T04:05:44.417Z,13.60
2019-04-19T04:08:19.828Z,13.90
2019-04-19T04:10:54.070Z,14.83
2019-04-19T04:13:46.186Z,14.70
2019-04-19T04:16:25.093Z,14.78
2019-04-19T04:18:45.343Z,13.80
2019-04-19T04:21:14.166Z,13.00
2019-04-19T04:23:46.324Z,13.08
2019-04-19T04:26:16.432Z,17.95
2019-04-19T04:28:56.393Z,18.85
2019-04-19T04:31:22.853Z,14.13
2019-04-19T04:33:56.663Z,15.85
2019-04-19T04:36:39.860Z,16.25
2019-04-19T04:38:48.254Z,13.05
2019-04-19T04:41:22.821Z,15.50
2019-04-19T04:44:11.354Z,15.70
2019-04-19T04:46:46.300Z,13.93
2019-04-19T04:49:30.691Z,14.98
2019-04-19T04:51:55.842Z,12.60
2019-04-19T04:54:16.537Z,13.35
2019-04-19T04:57:00.406Z,13.53
2019-04-19T04:59:23.334Z,12.30
2019-04-19T05:01:58.634Z,15.08
2019-04-19T05:04:34.812Z,14.47
2019-04-19T05:07:12.531Z,14.20
2019-04-19T05:09:40.902Z,14.23
2019-04-19T05:12:12.888Z,18.12
2019-04-19T05:14:36.318Z,14.70
2019-04-19T05:17:30.434Z,17.00
2019-04-19T05:19:46.355Z,16.20
2019-04-19T05:22:12.670Z,13.22
2019-04-19T05:24:51.942Z,14.95
2019-04-19T05:27:15.164Z,16.45
2019-04-19T05:29:33.376Z,13.53
2019-04-19T05:32:04.883Z,14.58
2019-04-19T05:34:46.010Z,18.30
2019-04-19T05:37:15.032Z,16.65
2019-04-19T05:39:59.570Z,18.50
2019-04-19T05:42:42.846Z,16.23
2019-04-19T05:45:32.309Z,16.97
2019-04-19T05:47:34.990Z,13.28
2019-04-19T05:50:17.106Z,17.82
2019-04-19T05:52:39.473Z,14.50
2019-04-19T05:54:53.823Z,13.55
2019-04-19T05:57:42.686Z,13.58
2019-04-19T06:00:03.019Z,15.65
2019-04-19T06:02:31.387Z,15.45
2019-04-19T06:05:21.442Z,17.62
2019-04-19T06:07:39.106Z,16.37
2019-04-19T06:09:55.918Z,16.15
2019-04-19T06:12:28.780Z,16.62
2019-04-19T06:15:19.183Z,12.05
2019-04-19T06:17:53.474Z,13.78
2019-04-19T06:20:20.749Z,15.25
2019-04-19T06:22:59.748Z,14.43
2019-04-19T06:25:37.522Z,15.18
2019-04-19T06:28:12.824Z,13.25
2019-04-19T06:30:36.535Z,15.50
2019-04-19T06:33:07.277Z,12.10
2019-04-19T06:35:27.236Z,17.10
2019-04-19T06:37:46.492Z,15.18
2019-04-19T06:40:22.665Z,14.33
2019-04-19T06:42:55.514Z,15.28
2019-04-19T06:45:30.980Z,13.73
2019-04-19T06:47:54.625Z,11.93
2019-04-19T06:50:25.366Z,16.25
2019-04-19T06:52:48.932Z,12.30
2019-04-19T06:55:25.979Z,11.87
2019-04-19T06:57:57.866Z,14.43
2019-04-19T07:00:30.566Z,14.40
2019-04-19T07:02:49.742Z,11.77
2019-04-19T07:05:30.319Z,11.30
2019-04-19T07:08:18.276Z,13.20
2019-04-19T07:10:45.539Z,12.77
2019-04-19T07:13:04.891Z,13.47
2019-04-19T07:15:49.724Z,13.13
2019-04-19T07:18:02.487Z,14.10
2019-04-19T07:20:30.073Z,20.63
2019-04-19T07:23:03.339Z,13.80
2019-04-19T07:25:42.399Z,14.73
2019-04-19T07:28:01.191Z,16.10
2019-04-19T07:30:22.535Z,15.53
2019-04-19T07:33:00.360Z,24.53
2019-04-19T07:35:48.397Z,19.23
2019-04-19T07:38:19.496Z,12.90
2019-04-19T07:40:42.517Z,11.50
2019-04-19T07:43:10.384Z,12.30
2019-04-19T07:45:53.801Z,10.97
2019-04-19T07:48:11.228Z,14.70
2019-04-19T07:50:43.415Z,11.20
2019-04-19T07:53:03.942Z,13.90
2019-04-19T08:00:56.508Z,10.53
2019-04-19T08:04:06.705Z,10.00
2019-04-19T08:06:02.013Z,9.57
2019-04-19T08:08:39.784Z,10.50
2019-04-19T08:13:53.811Z,10.00
2019-04-19T08:16:04.461Z,10.00
2019-04-19T08:28:37.572Z,9.93
2019-04-19T08:31:02.602Z,10.63
2019-04-19T08:33:29.975Z,9.90
2019-04-19T08:36:02.116Z,11.50
2019-04-19T08:38:29.545Z,19.03
2019-04-19T08:41:09.100Z,11.27
2019-04-19T08:43:47.278Z,10.40
2019-04-19T08:46:00.810Z,9.20
2019-04-19T08:49:02.013Z,9.30
2019-04-19T08:51:43.567Z,9.00
2019-04-19T08:54:31.642Z,8.70
2019-04-19T08:56:53.719Z,9.20
2019-04-19T08:59:38.624Z,11.43
2019-04-19T09:02:05.337Z,9.13
2019-04-19T09:04:34.462Z,7.80
2019-04-19T09:09:37.184Z,10.47
2019-04-19T09:12:06.938Z,12.50
2019-04-19T09:14:43.217Z,11.87
2019-04-19T09:17:14.277Z,9.17
2019-04-19T09:19:55.275Z,8.43
2019-04-19T09:22:05.150Z,9.00
2019-04-19T09:24:29.187Z,11.57
2019-04-19T09:27:01.159Z,8.63
2019-04-19T09:29:40.137Z,11.73
2019-04-19T09:31:57.090Z,9.60
2019-04-19T09:34:21.586Z,7.40
2019-04-19T09:37:01.217Z,8.20
2019-04-19T09:39:34.685Z,8.10
2019-04-19T09:41:57.570Z,7.20
2019-04-19T09:44:31.842Z,9.13
2019-04-19T09:46:53.582Z,12.43
2019-04-19T09:49:38.007Z,8.03
2019-04-19T09:52:07.044Z,9.47
2019-04-19T09:54:48.111Z,6.90
2019-04-19T09:57:05.454Z,7.60
2019-04-19T09:59:27.826Z,6.40
2019-04-19T10:01:56.078Z,6.77
2019-04-19T10:04:20.945Z,7.17
2019-04-19T10:06:51.178Z,6.20
2019-04-19T10:09:22.231Z,6.50
2019-04-19T10:11:50.996Z,6.37
2019-04-19T10:14:19.441Z,6.23
2019-04-19T10:17:02.540Z,5.27
2019-04-19T10:19:30.730Z,5.27
2019-04-19T10:22:04.719Z,6.90
2019-04-19T10:24:33.427Z,5.43
2019-04-19T10:27:39.583Z,6.23
2019-04-19T10:30:24.479Z,8.57
2019-04-19T10:32:54.100Z,5.83
2019-04-19T10:35:20.674Z,6.70
2019-04-19T10:37:51.458Z,6.57
2019-04-19T10:40:19.578Z,6.33
2019-04-19T10:42:47.663Z,8.03
2019-04-19T10:45:16.189Z,5.37
2019-04-19T10:47:47.636Z,6.37
2019-04-19T10:50:27.336Z,4.87
2019-04-19T10:52:44.628Z,8.73
2019-04-19T10:55:13.970Z,5.03
2019-04-19T10:57:41.283Z,5.67
2019-04-19T11:00:09.296Z,5.97
2019-04-19T11:02:38.343Z,5.50
2019-04-19T11:05:07.394Z,6.30
2019-04-19T11:07:36.854Z,6.77
2019-04-19T11:10:05.512Z,5.30
2019-04-19T11:12:32.636Z,4.97
2019-04-19T11:15:06.517Z,6.23
2019-04-19T11:17:33.993Z,5.40
2019-04-19T11:20:16.994Z,5.03
2019-04-19T11:22:30.207Z,6.23
2019-04-19T11:24:57.650Z,5.30
2019-04-19T11:27:26.886Z,4.60
2019-04-19T11:29:58.561Z,7.37
2019-04-19T11:32:41.990Z,4.77
2019-04-19T11:35:13.825Z,6.20
2019-04-19T11:37:45.014Z,5.47
2019-04-19T11:40:17.199Z,5.20
2019-04-19T11:42:46.190Z,5.50
2019-04-19T11:45:17.806Z,4.60
2019-04-19T11:47:49.048Z,4.53
2019-04-19T11:50:18.053Z,5.37
2019-04-19T11:53:12.130Z,4.53
2019-04-19T11:55:42.818Z,6.63
2019-04-19T11:58:10.515Z,4.03
2019-04-19T12:01:03.731Z,4.00
2019-04-19T12:03:32.211Z,4.87
2019-04-19T12:06:04.564Z,4.70
2019-04-19T12:08:32.910Z,4.10
2019-04-19T12:11:00.635Z,4.83
2019-04-19T12:13:31.024Z,4.73
2019-04-19T12:15:59.414Z,4.63
2019-04-19T12:18:28.671Z,4.70
2019-04-19T12:20:57.544Z,6.20
2019-04-19T12:23:26.104Z,5.00
2019-04-19T12:25:55.501Z,3.83
2019-04-19T12:28:23.940Z,4.90
2019-04-19T12:30:55.575Z,4.90
2019-04-19T12:33:23.610Z,5.77
2019-04-19T12:35:52.993Z,3.70
2019-04-19T12:38:22.063Z,3.70
2019-04-19T12:40:58.212Z,3.20
2019-04-19T12:43:27.655Z,3.13
2019-04-19T12:45:57.186Z,3.53
2019-04-19T12:48:26.058Z,4.00
2019-04-19T12:50:55.592Z,3.20
2019-04-19T12:53:25.268Z,2.90
2019-04-19T12:55:54.221Z,3.67
2019-04-19T12:58:22.439Z,2.70
2019-04-19T13:01:08.519Z,3.63
2019-04-19T13:03:57.439Z,5.07
2019-04-19T13:06:27.556Z,2.77
2019-04-19T13:08:57.169Z,2.20
2019-04-19T13:11:27.210Z,2.80
2019-04-19T13:13:57.510Z,3.23
2019-04-19T13:16:26.469Z,3.00
2019-04-19T13:18:56.197Z,2.80
2019-04-19T13:21:26.187Z,3.20
2019-04-19T13:23:55.997Z,2.53
2019-04-19T13:26:25.264Z,2.83
2019-04-19T13:28:55.386Z,2.30
2019-04-19T13:31:24.948Z,2.43
2019-04-19T13:33:53.493Z,2.70
2019-04-19T13:36:51.413Z,3.27
2019-04-19T13:39:46.520Z,3.17
2019-04-19T13:42:16.977Z,2.87
2019-04-19T13:44:47.483Z,3.10
2019-04-19T13:47:16.760Z,3.03
2019-04-19T13:49:46.472Z,15.90
2019-04-19T13:52:14.554Z,10.97
2019-04-19T13:54:43.123Z,3.57
2019-04-19T13:57:11.503Z,9.70
2019-04-19T13:59:56.502Z,14.33
2019-04-19T14:02:20.553Z,3.57
2019-04-19T14:04:49.450Z,3.17
2019-04-19T14:07:17.064Z,4.07
2019-04-19T14:09:45.378Z,2.90
2019-04-19T14:12:15.524Z,2.90
2019-04-19T14:14:44.436Z,3.60
2019-04-19T14:17:15.886Z,3.00
2019-04-19T14:19:44.915Z,3.10
2019-04-19T14:22:13.447Z,6.30
2019-04-19T14:24:40.945Z,4.30
2019-04-19T14:27:15.221Z,5.10
2019-04-19T14:29:43.599Z,2.70
2019-04-19T14:32:13.565Z,4.10
2019-04-19T14:34:43.498Z,3.90
2019-04-19T14:37:18.804Z,3.67
2019-04-19T14:39:46.885Z,2.40
2019-04-19T14:42:14.368Z,11.40
2019-04-19T14:44:43.250Z,7.60
2019-04-19T14:47:12.809Z,4.37
2019-04-19T14:49:45.352Z,7.70
2019-04-19T14:52:14.153Z,3.13
2019-04-19T14:54:42.955Z,3.53
2019-04-19T14:57:11.186Z,3.20
2019-04-19T14:59:40.810Z,3.57
2019-04-19T15:02:33.358Z,5.63
2019-04-19T15:05:09.629Z,3.00
2019-04-19T15:07:38.596Z,5.23
2019-04-19T15:10:06.890Z,18.40
2019-04-19T15:12:34.467Z,5.70
2019-04-19T15:15:01.917Z,3.50
2019-04-19T15:17:29.303Z,3.30
2019-04-19T15:19:59.875Z,3.57
2019-04-19T15:22:28.405Z,3.73
2019-04-19T15:24:57.162Z,4.97
2019-04-19T15:27:25.751Z,3.73
2019-04-19T15:29:58.915Z,4.77
2019-04-19T15:32:26.589Z,5.40
2019-04-19T15:34:55.834Z,4.37
2019-04-19T15:37:25.563Z,4.00
2019-04-19T15:39:53.957Z,3.57
2019-04-19T15:42:26.830Z,3.60
2019-04-19T15:44:55.221Z,3.67
2019-04-19T15:47:22.462Z,4.93
2019-04-19T15:49:51.719Z,3.20
2019-04-19T15:52:23.922Z,3.13
2019-04-19T15:54:52.367Z,2.77
2019-04-19T15:57:20.510Z,2.90
2019-04-19T15:59:47.903Z,4.30
2019-04-19T16:02:36.030Z,3.70
2019-04-19T16:05:11.091Z,4.80
2019-04-19T16:08:18.026Z,4.50
2019-04-19T16:11:05.079Z,4.27
2019-04-19T16:13:34.093Z,3.73
2019-04-19T16:16:05.751Z,3.80
2019-04-19T16:18:36.129Z,4.00
2019-04-19T16:21:05.348Z,3.63
2019-04-19T16:23:34.383Z,4.03
2019-04-19T16:26:13.333Z,4.60
2019-04-19T16:28:41.850Z,4.77
2019-04-19T16:31:10.497Z,5.93
2019-04-19T16:33:38.284Z,9.53
2019-04-19T16:36:10.927Z,19.77
2019-04-19T16:38:38.303Z,7.80
2019-04-19T16:41:06.566Z,10.53
2019-04-19T16:43:33.754Z,8.77
2019-04-19T16:46:11.710Z,10.03
2019-04-19T16:48:32.980Z,6.57
2019-04-19T16:51:01.187Z,9.07
2019-04-19T16:53:29.712Z,11.90
2019-04-19T16:55:59.461Z,10.37
2019-04-19T16:58:28.539Z,4.93
2019-04-19T17:00:58.729Z,6.30
2019-04-19T17:03:27.722Z,14.90
2019-04-19T17:06:02.292Z,7.70
2019-04-19T17:08:30.146Z,6.80
2019-04-19T17:10:59.723Z,4.93
2019-04-19T17:13:29.162Z,4.33
2019-04-19T17:16:27.318Z,3.80
2019-04-19T17:19:24.554Z,5.07
2019-04-19T17:22:03.430Z,5.27
2019-04-19T17:24:25.549Z,7.80
2019-04-19T17:26:58.585Z,5.40
2019-04-19T17:29:27.087Z,5.60
2019-04-19T17:31:56.150Z,4.10
2019-04-19T17:34:24.352Z,7.00
2019-04-19T17:36:51.837Z,4.00
2019-04-19T17:39:26.689Z,6.10
2019-04-19T17:41:54.644Z,4.80
2019-04-19T17:44:22.305Z,5.10
2019-04-19T17:46:54.681Z,5.83
2019-04-19T17:49:22.522Z,5.90
2019-04-19T17:52:01.967Z,4.60
2019-04-19T17:54:41.485Z,4.30
2019-04-19T17:57:02.824Z,5.10
2019-04-19T17:59:32.297Z,4.30
2019-04-19T18:02:01.230Z,4.70
2019-04-19T18:04:32.252Z,4.97
2019-04-19T18:07:04.589Z,4.20
2019-04-19T18:09:33.067Z,5.30
2019-04-19T18:12:01.172Z,6.57
2019-04-19T18:14:33.744Z,4.53
2019-04-19T18:17:01.087Z,4.60
2019-04-19T18:19:33.287Z,5.93
2019-04-19T18:22:11.352Z,4.67
2019-04-19T18:24:29.735Z,4.50
2019-04-19T18:27:02.310Z,4.83
2019-04-19T18:29:28.695Z,5.10
2019-04-19T18:32:03.313Z,4.60
2019-04-19T18:34:43.208Z,12.40
2019-04-19T18:37:14.352Z,5.13
2019-04-19T18:39:44.607Z,4.27
2019-04-19T18:42:13.676Z,6.37
2019-04-19T18:44:47.645Z,4.90
2019-04-19T18:47:12.385Z,5.30
2019-04-19T18:49:47.663Z,5.47
2019-04-19T18:52:32.346Z,5.77
2019-04-19T18:54:54.082Z,5.00
2019-04-19T18:57:14.514Z,7.03
2019-04-19T18:59:44.512Z,4.37
2019-04-19T19:02:20.826Z,6.67
2019-04-19T19:04:46.735Z,5.63
2019-04-19T19:07:20.702Z,5.53
2019-04-19T19:09:48.512Z,4.50
2019-04-19T19:12:20.345Z,4.57
2019-04-19T19:14:51.472Z,4.77
2019-04-19T19:17:20.120Z,5.53
2019-04-19T19:20:12.262Z,4.70
2019-04-19T19:22:52.102Z,4.77
2019-04-19T19:25:21.413Z,5.07
2019-04-19T19:27:37.857Z,4.83
2019-04-19T19:30:06.760Z,4.93
2019-04-19T19:32:34.337Z,5.40
2019-04-19T19:35:13.436Z,5.30
2019-04-19T19:37:39.427Z,4.90
2019-04-19T19:40:15.560Z,5.17
2019-04-19T19:43:01.301Z,5.27
2019-04-19T19:45:21.613Z,6.53
2019-04-19T19:48:42.447Z,5.87
2019-04-19T19:51:04.791Z,5.20
2019-04-19T19:56:18.630Z,8.07
2019-04-19T19:58:29.868Z,6.10
2019-04-19T20:01:07.083Z,6.50
2019-04-19T20:03:35.213Z,5.07
2019-04-19T20:06:06.602Z,7.40
2019-04-19T20:08:34.751Z,9.63
2019-04-19T20:10:59.290Z,7.47
2019-04-19T20:13:34.545Z,6.30
2019-04-19T20:15:56.777Z,7.17
2019-04-19T20:18:30.894Z,7.03
2019-04-19T20:20:54.497Z,8.03
2019-04-19T20:23:30.221Z,7.67
2019-04-19T20:26:04.455Z,7.30
2019-04-19T20:28:26.476Z,10.03
2019-04-19T20:30:53.554Z,9.07
2019-04-19T20:33:25.742Z,23.07
2019-04-19T20:35:55.141Z,21.50
2019-04-19T20:38:23.328Z,14.80
2019-04-19T20:40:55.939Z,19.93
2019-04-19T20:43:35.317Z,40.97
2019-04-19T20:45:51.276Z,47.03
2019-04-19T20:48:21.088Z,45.90
2019-04-19T20:50:55.918Z,32.80
2019-04-19T20:53:35.808Z,32.47
2019-04-19T20:56:32.006Z,29.73
2019-04-19T20:58:35.485Z,19.43
2019-04-19T21:00:58.860Z,17.70
2019-04-19T21:03:34.452Z,14.17
2019-04-19T21:05:59.967Z,15.20
2019-04-19T21:08:29.066Z,11.50
2019-04-19T21:11:02.311Z,11.80
2019-04-19T21:13:27.361Z,10.97
2019-04-19T21:15:56.187Z,8.90
2019-04-19T21:18:26.197Z,11.00
2019-04-19T21:21:00.797Z,9.57
2019-04-19T21:23:31.251Z,8.00
2019-04-19T21:26:00.630Z,10.17
2019-04-19T21:28:33.205Z,10.03
2019-04-19T21:31:00.887Z,10.00
2019-04-19T21:33:26.735Z,8.73
2019-04-19T21:36:02.193Z,8.70
2019-04-19T21:38:25.049Z,9.43
2019-04-19T21:40:53.287Z,7.87
2019-04-19T21:43:29.560Z,8.70
2019-04-19T21:45:52.994Z,9.27
2019-04-19T21:48:24.849Z,8.60
2019-04-19T21:50:50.158Z,11.70
2019-04-19T21:53:18.706Z,10.70
2019-04-19T21:55:54.081Z,11.40
2019-04-19T21:58:19.529Z,11.10
2019-04-19T22:01:03.640Z,10.13
2019-04-19T22:03:30.450Z,11.80
2019-04-19T22:06:01.888Z,16.27
2019-04-19T22:08:31.847Z,10.57
2019-04-19T22:11:00.434Z,14.90
2019-04-19T22:13:32.011Z,12.80
2019-04-19T22:16:00.100Z,10.53
2019-04-19T22:18:27.735Z,13.03
2019-04-19T22:20:58.531Z,13.47
2019-04-19T22:23:30.921Z,11.20
2019-04-19T22:26:09.835Z,14.00
2019-04-19T22:28:27.677Z,12.77
2019-04-19T22:30:56.435Z,13.10
2019-04-19T22:33:24.795Z,12.40
2019-04-19T22:35:54.964Z,12.33
2019-04-19T22:38:22.898Z,10.50
2019-04-19T22:40:54.747Z,12.83
2019-04-19T22:43:22.650Z,10.53
2019-04-19T22:45:56.796Z,11.57
2019-04-19T22:48:21.467Z,10.63
2019-04-19T22:50:49.170Z,10.30
2019-04-19T22:53:25.697Z,9.63
2019-04-19T22:55:59.260Z,9.60
2019-04-19T22:58:24.152Z,9.70
2019-04-19T23:00:49.949Z,9.87
2019-04-19T23:06:32.515Z,8.50
2019-04-19T23:09:00.932Z,9.87
2019-04-19T23:11:29.825Z,9.30
2019-04-19T23:13:57.035Z,13.97
2019-04-19T23:16:25.556Z,8.87
2019-04-19T23:19:00.703Z,8.70
2019-04-19T23:21:24.782Z,8.63
2019-04-19T23:23:51.218Z,10.63
2019-04-19T23:26:30.643Z,11.33
2019-04-19T23:28:49.495Z,8.20
2019-04-19T23:31:17.961Z,8.07
2019-04-19T23:33:54.175Z,9.37
2019-04-19T23:36:21.272Z,7.90
2019-04-19T23:38:45.871Z,8.83
2019-04-19T23:41:13.241Z,7.93
2019-04-19T23:43:43.972Z,8.57
2019-04-19T23:46:18.736Z,8.43
2019-04-19T23:48:42.689Z,8.33
2019-04-19T23:51:13.756Z,10.40
2019-04-19T23:53:44.547Z,8.80
2019-04-19T23:56:22.371Z,10.20
2019-04-19T23:58:42.598Z,9.60
